If you wish to contribute or participate in the discussions about articles you are invited to join SKYbrary as a registered user

 Actions

Atka Airport

From SKYbrary Wiki

PAAK
Airport
ICAO: PAAK – IATA: AKB
Summary
Name Atka Airport
Region North America
Territory Alaska US.gif
Location , Alaska
Serving Atka
Elevation 17.374 m
57 ft
57 ft17.374 m
Type small airport
Coordinates 52° 13' 13.0008", -174° 12' 23.0004"
Close to Bering Sea
Runways
Designator Length Width Surface ROPS
16/34 1372 m4,501.312 ft 30 m98.425 ft ASPH-E /
METAR
Observation PAAK 122056Z AUTO 34014KT 8SM -SN SCT033 OVC043 M01/M05 A2974 RMK AO2 UPB19E33SNB01E19B33 SLP072 P0000 60000 T10061050 53013 FZRANO
Station Atka, Atka Airport
Date/Time 12 December 2017 20:56:00
Wind direction 340°
Wind speed 14 kts
Lowest cloud amount scattered clouds
Temperature
Dew point
Humidity 72%
QNH hPa
Weather condition light snow